createdAt,value
2022-10-09T00:00:04.912Z,8.64
2022-10-09T00:02:45.750Z,8.59
2022-10-09T00:05:16.726Z,8.54
2022-10-09T00:07:47.261Z,8.57
2022-10-09T00:10:17.774Z,8.53
2022-10-09T00:12:48.577Z,8.49
2022-10-09T00:15:19.686Z,8.48
2022-10-09T00:17:52.904Z,8.45
2022-10-09T00:20:23.321Z,8.44
2022-10-09T00:22:53.861Z,8.41
2022-10-09T00:25:24.353Z,8.38
2022-10-09T00:27:54.967Z,8.35
2022-10-09T00:30:25.783Z,8.30
2022-10-09T00:32:59.119Z,8.22
2022-10-09T00:35:29.577Z,8.25
2022-10-09T00:38:00.113Z,8.22
2022-10-09T00:40:30.888Z,8.19
2022-10-09T00:43:01.889Z,8.17
2022-10-09T00:45:33.513Z,8.12
2022-10-09T00:48:09.768Z,8.14
2022-10-09T00:50:46.173Z,8.08
2022-10-09T00:53:20.144Z,8.11
2022-10-09T00:55:50.788Z,8.08
2022-10-09T00:58:22.507Z,8.08
2022-10-09T01:00:53.211Z,8.06
2022-10-09T01:03:26.309Z,8.05
2022-10-09T01:06:05.799Z,8.04
2022-10-09T01:08:43.653Z,8.03
2022-10-09T01:11:21.947Z,8.03
2022-10-09T01:14:00.943Z,8.02
2022-10-09T01:16:34.131Z,8.01
2022-10-09T01:19:15.562Z,8.01
2022-10-09T01:21:55.460Z,8.00
2022-10-09T01:24:32.171Z,7.97
2022-10-09T01:27:12.189Z,7.97
2022-10-09T01:29:48.429Z,7.96
2022-10-09T01:32:23.176Z,7.92
2022-10-09T01:34:55.452Z,7.94
2022-10-09T01:37:27.749Z,7.91
2022-10-09T01:39:58.344Z,7.91
2022-10-09T01:42:33.020Z,7.91
2022-10-09T01:45:03.705Z,7.91
2022-10-09T01:47:34.434Z,7.87
2022-10-09T01:50:08.926Z,7.88
2022-10-09T01:52:51.021Z,7.85
2022-10-09T01:55:42.109Z,7.81
2022-10-09T01:58:20.837Z,7.84
2022-10-09T02:01:01.680Z,7.84
2022-10-09T02:03:34.292Z,7.83
2022-10-09T02:06:07.307Z,7.82
2022-10-09T02:08:39.395Z,7.81
2022-10-09T02:11:11.590Z,7.79
2022-10-09T02:13:45.154Z,7.80
2022-10-09T02:16:40.849Z,7.77
2022-10-09T02:19:16.578Z,7.80
2022-10-09T02:21:54.270Z,7.80
2022-10-09T02:24:27.719Z,7.79
2022-10-09T02:26:59.070Z,7.78
2022-10-09T02:29:32.577Z,7.79
2022-10-09T02:32:03.659Z,7.77
2022-10-09T02:34:34.745Z,7.77
2022-10-09T02:37:06.001Z,7.76
2022-10-09T02:39:36.576Z,7.76
2022-10-09T02:42:07.877Z,7.74
2022-10-09T02:44:40.929Z,7.74
2022-10-09T02:47:11.552Z,7.70
2022-10-09T02:49:42.043Z,7.70
2022-10-09T02:52:12.666Z,7.68
2022-10-09T02:54:43.183Z,7.66
2022-10-09T02:57:13.772Z,7.67
2022-10-09T02:59:46.808Z,7.67
2022-10-09T03:02:17.400Z,7.67
2022-10-09T03:04:47.902Z,7.67
2022-10-09T03:07:18.316Z,7.63
2022-10-09T03:09:48.805Z,7.67
2022-10-09T03:12:21.495Z,7.65
2022-10-09T03:14:54.553Z,7.61
2022-10-09T03:17:24.963Z,7.64
2022-10-09T03:19:55.510Z,7.63
2022-10-09T03:22:26.085Z,7.62
2022-10-09T03:24:56.503Z,7.63
2022-10-09T03:27:26.932Z,7.59
2022-10-09T03:30:00.508Z,7.62
2022-10-09T03:32:30.987Z,7.63
2022-10-09T03:35:01.526Z,7.63
2022-10-09T03:37:32.915Z,7.64
2022-10-09T03:40:03.339Z,7.65
2022-10-09T03:42:33.818Z,7.64
2022-10-09T03:45:07.741Z,7.64
2022-10-09T03:47:38.270Z,7.63
2022-10-09T03:50:10.013Z,7.62
2022-10-09T03:52:41.201Z,7.58
2022-10-09T03:55:12.452Z,7.61
2022-10-09T03:57:43.037Z,7.60
2022-10-09T04:00:17.845Z,7.58
2022-10-09T04:02:48.680Z,7.58
2022-10-09T04:05:19.594Z,7.57
2022-10-09T04:07:50.329Z,7.54
2022-10-09T04:10:20.984Z,7.53
2022-10-09T04:12:51.703Z,7.52
2022-10-09T04:15:24.808Z,7.49
2022-10-09T04:17:55.198Z,7.46
2022-10-09T04:20:25.593Z,7.44
2022-10-09T04:22:55.950Z,7.41
2022-10-09T04:25:26.395Z,7.35
2022-10-09T04:27:56.829Z,7.38
2022-10-09T04:30:29.924Z,7.36
2022-10-09T04:33:00.310Z,7.37
2022-10-09T04:35:30.713Z,7.36
2022-10-09T04:38:01.182Z,7.32
2022-10-09T04:40:31.623Z,7.34
2022-10-09T04:43:02.045Z,7.31
2022-10-09T04:45:35.387Z,7.33
2022-10-09T04:48:05.819Z,7.33
2022-10-09T04:50:36.274Z,7.40
2022-10-09T04:53:06.767Z,7.43
2022-10-09T04:55:42.049Z,7.44
2022-10-09T04:58:13.329Z,7.48
2022-10-09T05:00:48.727Z,7.50
2022-10-09T05:03:18.872Z,7.52
2022-10-09T05:05:49.383Z,7.53
2022-10-09T05:08:20.231Z,7.56
2022-10-09T05:10:50.645Z,7.59
2022-10-09T05:13:21.073Z,7.62
2022-10-09T05:15:54.259Z,7.67
2022-10-09T05:18:24.679Z,7.71
2022-10-09T05:20:55.389Z,7.78
2022-10-09T05:23:25.836Z,7.84
2022-10-09T05:25:59.584Z,7.93
2022-10-09T05:28:30.378Z,8.02
2022-10-09T05:31:03.533Z,8.13
2022-10-09T05:33:34.214Z,8.22
2022-10-09T05:36:07.042Z,8.29
2022-10-09T05:38:37.599Z,8.49
2022-10-09T05:41:10.472Z,8.68
2022-10-09T05:43:42.636Z,8.92
2022-10-09T05:46:17.600Z,9.16
2022-10-09T05:48:53.913Z,9.43
2022-10-09T05:51:26.705Z,9.74
2022-10-09T05:53:57.944Z,10.03
2022-10-09T05:56:30.942Z,10.35
2022-10-09T05:59:03.315Z,10.69
2022-10-09T06:01:38.790Z,11.00
2022-10-09T06:04:11.211Z,11.33
2022-10-09T06:06:42.951Z,11.63
2022-10-09T06:09:14.423Z,11.94
2022-10-09T06:11:45.623Z,12.21
2022-10-09T06:14:16.257Z,12.60
2022-10-09T06:16:49.433Z,12.95
2022-10-09T06:19:21.634Z,13.27
2022-10-09T06:21:52.485Z,13.81
2022-10-09T06:24:29.211Z,14.27
2022-10-09T06:27:00.456Z,14.74
2022-10-09T06:29:31.210Z,15.24
2022-10-09T06:32:04.348Z,15.71
2022-10-09T06:34:34.812Z,16.15
2022-10-09T06:37:05.246Z,16.51
2022-10-09T06:39:35.704Z,16.84
2022-10-09T06:42:06.354Z,17.15
2022-10-09T06:44:53.778Z,17.49
2022-10-09T06:47:27.012Z,17.75
2022-10-09T06:49:57.502Z,18.01
2022-10-09T06:52:28.006Z,18.26
2022-10-09T06:54:58.457Z,18.50
2022-10-09T06:57:29.061Z,18.74
2022-10-09T06:59:59.547Z,18.99
2022-10-09T07:02:38.245Z,19.27
2022-10-09T07:05:11.834Z,19.59
2022-10-09T07:07:45.636Z,19.89
2022-10-09T07:10:16.107Z,20.25
2022-10-09T07:12:47.111Z,20.57
2022-10-09T07:15:17.835Z,20.92
2022-10-09T07:17:51.025Z,21.24
2022-10-09T07:20:21.496Z,21.60
2022-10-09T07:22:52.340Z,21.92
2022-10-09T07:25:22.786Z,22.26
2022-10-09T07:27:53.308Z,22.53
2022-10-09T07:30:23.829Z,22.89
2022-10-09T07:32:58.185Z,23.21
2022-10-09T07:35:28.987Z,23.57
2022-10-09T07:37:59.817Z,23.89
2022-10-09T07:40:30.346Z,24.17
2022-10-09T07:43:01.038Z,24.36
2022-10-09T07:45:31.662Z,24.43
2022-10-09T07:48:04.817Z,24.56
2022-10-09T07:50:35.353Z,24.66
2022-10-09T07:53:05.908Z,24.74
2022-10-09T07:55:36.405Z,24.83
2022-10-09T07:58:06.871Z,24.88
2022-10-09T08:00:37.349Z,24.89
2022-10-09T08:03:10.498Z,24.85
2022-10-09T08:05:41.207Z,24.78
2022-10-09T08:08:11.817Z,24.64
2022-10-09T08:10:42.277Z,24.42
2022-10-09T08:13:12.768Z,24.15
2022-10-09T08:15:43.680Z,23.78
2022-10-09T08:18:16.987Z,23.37
2022-10-09T08:20:47.418Z,22.93
2022-10-09T08:23:18.097Z,22.50
2022-10-09T08:25:50.140Z,22.45
2022-10-09T08:28:20.809Z,22.79
2022-10-09T08:30:51.406Z,23.22
2022-10-09T08:33:26.128Z,23.74
2022-10-09T08:35:56.631Z,24.31
2022-10-09T08:38:46.272Z,24.69
2022-10-09T08:41:24.415Z,24.59
2022-10-09T08:44:02.549Z,24.33
2022-10-09T08:46:38.930Z,23.96
2022-10-09T08:49:22.730Z,23.61
2022-10-09T08:51:53.872Z,23.29
2022-10-09T08:54:33.843Z,23.02
2022-10-09T08:57:07.350Z,22.78
2022-10-09T08:59:37.822Z,22.53
2022-10-09T09:02:22.529Z,22.30
2022-10-09T09:05:11.051Z,22.10
2022-10-09T09:07:50.073Z,21.94
2022-10-09T09:10:30.474Z,21.74
2022-10-09T09:13:06.677Z,21.58
2022-10-09T09:15:47.159Z,21.45
2022-10-09T09:18:37.676Z,21.34
2022-10-09T09:21:20.298Z,21.20
2022-10-09T09:23:51.446Z,21.09
2022-10-09T09:26:24.391Z,20.95
2022-10-09T09:28:59.884Z,20.87
2022-10-09T09:31:36.337Z,20.81
2022-10-09T09:34:12.966Z,20.74
2022-10-09T09:36:50.486Z,20.67
2022-10-09T09:40:24.318Z,20.61
2022-10-09T09:42:21.439Z,20.55
2022-10-09T09:44:59.267Z,20.51
2022-10-09T09:47:35.950Z,20.48
2022-10-09T09:50:23.325Z,20.47
2022-10-09T09:53:05.755Z,20.49
2022-10-09T09:55:37.620Z,20.49
2022-10-09T09:58:10.674Z,20.52
2022-10-09T10:00:41.270Z,20.56
2022-10-09T10:03:16.809Z,20.59
2022-10-09T10:05:47.989Z,20.62
2022-10-09T10:08:26.224Z,20.67
2022-10-09T10:10:58.952Z,20.68
2022-10-09T10:13:38.224Z,20.70
2022-10-09T10:16:12.687Z,20.72
2022-10-09T10:18:45.627Z,20.74
2022-10-09T10:21:17.841Z,20.78
2022-10-09T10:23:56.288Z,20.85
2022-10-09T10:26:34.740Z,20.93
2022-10-09T10:29:13.089Z,21.02
2022-10-09T10:31:49.459Z,21.09
2022-10-09T10:34:26.114Z,21.19
2022-10-09T10:37:03.425Z,21.29
2022-10-09T10:39:43.093Z,21.46
2022-10-09T10:42:22.271Z,21.60
2022-10-09T10:45:00.861Z,21.78
2022-10-09T10:47:37.624Z,21.93
2022-10-09T10:50:15.315Z,22.08
2022-10-09T10:53:00.474Z,22.22
2022-10-09T10:55:46.666Z,22.37
2022-10-09T10:58:28.920Z,22.54
2022-10-09T11:01:15.098Z,22.69
2022-10-09T11:04:16.054Z,22.84
2022-10-09T11:06:56.859Z,22.96
2022-10-09T11:09:37.730Z,23.09
2022-10-09T11:12:30.082Z,23.22
2022-10-09T11:15:19.512Z,23.35
2022-10-09T11:18:02.439Z,23.44
2022-10-09T11:20:53.935Z,23.48
2022-10-09T11:23:35.520Z,23.54
2022-10-09T11:26:15.063Z,23.62
2022-10-09T11:28:52.315Z,23.61
2022-10-09T11:31:27.734Z,23.76
2022-10-09T11:34:02.213Z,24.08
2022-10-09T11:36:38.007Z,24.34
2022-10-09T11:39:11.381Z,24.57
2022-10-09T11:41:42.728Z,24.73
2022-10-09T11:44:36.336Z,24.98
2022-10-09T11:47:13.960Z,25.23
2022-10-09T11:50:01.508Z,25.51
2022-10-09T11:52:45.075Z,25.70
2022-10-09T11:55:24.196Z,25.78
2022-10-09T11:57:54.699Z,25.90
2022-10-09T12:00:39.003Z,25.91
2022-10-09T12:03:10.844Z,25.91
2022-10-09T12:05:44.947Z,25.94
2022-10-09T12:08:19.655Z,25.89
2022-10-09T12:10:56.052Z,25.81
2022-10-09T12:13:52.936Z,25.69
2022-10-09T12:16:40.165Z,25.40
2022-10-09T12:19:26.439Z,25.22
2022-10-09T12:22:09.472Z,24.88
2022-10-09T12:24:43.845Z,24.59
2022-10-09T12:27:22.058Z,24.24
2022-10-09T12:29:58.439Z,23.92
2022-10-09T12:32:34.590Z,23.58
2022-10-09T12:35:20.644Z,23.51
2022-10-09T12:37:51.390Z,23.74
2022-10-09T12:40:26.350Z,23.90
2022-10-09T12:42:57.869Z,24.08
2022-10-09T12:45:31.131Z,24.21
2022-10-09T12:48:14.769Z,24.36
2022-10-09T12:50:45.302Z,24.43
2022-10-09T12:53:18.095Z,24.46
2022-10-09T12:55:51.716Z,24.39
2022-10-09T12:58:24.323Z,24.26
2022-10-09T13:00:58.695Z,24.10
2022-10-09T13:03:39.755Z,23.96
2022-10-09T13:06:16.343Z,23.83
2022-10-09T13:08:47.822Z,23.76
2022-10-09T13:11:24.761Z,23.70
2022-10-09T13:13:56.991Z,23.65
2022-10-09T13:16:28.442Z,23.61
2022-10-09T13:19:03.007Z,23.62
2022-10-09T13:21:37.072Z,23.47
2022-10-09T13:24:13.436Z,23.33
2022-10-09T13:26:46.945Z,23.17
2022-10-09T13:29:18.029Z,23.00
2022-10-09T13:31:48.715Z,22.82
2022-10-09T13:34:23.998Z,22.67
2022-10-09T13:36:54.780Z,22.48
2022-10-09T13:39:25.616Z,22.31
2022-10-09T13:41:57.790Z,22.19
2022-10-09T13:44:28.858Z,22.07
2022-10-09T13:46:59.418Z,21.95
2022-10-09T13:49:32.507Z,21.87
2022-10-09T13:52:03.046Z,21.79
2022-10-09T13:54:33.620Z,21.73
2022-10-09T13:57:04.186Z,21.64
2022-10-09T13:59:35.134Z,21.57
2022-10-09T14:02:06.378Z,21.51
2022-10-09T14:04:39.534Z,21.44
2022-10-09T14:07:10.343Z,21.39
2022-10-09T14:09:41.557Z,21.35
2022-10-09T14:12:12.298Z,21.27
2022-10-09T14:14:42.863Z,21.22
2022-10-09T14:17:13.436Z,21.21
2022-10-09T14:19:46.550Z,21.17
2022-10-09T14:22:17.056Z,21.14
2022-10-09T14:24:47.579Z,21.12
2022-10-09T14:27:18.504Z,21.09
2022-10-09T14:29:51.090Z,21.06
2022-10-09T14:32:23.834Z,20.99
2022-10-09T14:34:57.093Z,20.95
2022-10-09T14:37:41.222Z,20.91
2022-10-09T14:40:13.591Z,20.88
2022-10-09T14:42:44.117Z,20.84
2022-10-09T14:45:14.771Z,20.78
2022-10-09T14:47:45.425Z,20.75
2022-10-09T14:50:18.705Z,20.70
2022-10-09T14:52:49.510Z,20.65
2022-10-09T14:55:20.515Z,20.59
2022-10-09T14:57:51.128Z,20.55
2022-10-09T15:00:21.640Z,20.48
2022-10-09T15:02:54.165Z,20.44
2022-10-09T15:05:29.532Z,20.36
2022-10-09T15:08:00.095Z,20.29
2022-10-09T15:10:30.956Z,20.22
2022-10-09T15:13:01.491Z,20.05
2022-10-09T15:15:32.853Z,20.08
2022-10-09T15:18:03.596Z,20.00
2022-10-09T15:20:36.715Z,19.92
2022-10-09T15:23:07.361Z,19.86
2022-10-09T15:25:37.811Z,19.79
2022-10-09T15:28:09.097Z,19.71
2022-10-09T15:30:39.727Z,19.66
2022-10-09T15:33:10.298Z,19.60
2022-10-09T15:35:43.801Z,19.53
2022-10-09T15:38:17.249Z,19.46
2022-10-09T15:40:49.625Z,19.37
2022-10-09T15:43:22.704Z,19.31
2022-10-09T15:45:54.356Z,19.23
2022-10-09T15:48:27.278Z,19.15
2022-10-09T15:51:00.618Z,19.07
2022-10-09T15:53:31.216Z,19.13
2022-10-09T15:56:08.099Z,19.52
2022-10-09T15:58:38.770Z,20.06
2022-10-09T16:01:11.644Z,20.73
2022-10-09T16:03:42.360Z,21.07
2022-10-09T16:06:17.574Z,21.63
2022-10-09T16:08:49.086Z,21.68
2022-10-09T16:11:24.955Z,21.89
2022-10-09T16:13:59.750Z,22.02
2022-10-09T16:16:30.685Z,21.88
2022-10-09T16:19:01.751Z,21.62
2022-10-09T16:21:35.013Z,21.27
2022-10-09T16:24:06.082Z,20.93
2022-10-09T16:26:36.582Z,20.57
2022-10-09T16:29:07.252Z,20.22
2022-10-09T16:31:38.776Z,19.90
2022-10-09T16:34:12.659Z,19.60
2022-10-09T16:36:45.975Z,19.28
2022-10-09T16:39:17.522Z,19.06
2022-10-09T16:41:48.165Z,18.85
2022-10-09T16:44:18.874Z,18.64
2022-10-09T16:46:49.318Z,18.43
2022-10-09T16:49:24.156Z,18.25
2022-10-09T16:51:58.313Z,18.07
2022-10-09T16:54:29.072Z,17.90
2022-10-09T16:56:59.556Z,17.78
2022-10-09T16:59:30.080Z,17.66
2022-10-09T17:02:02.405Z,17.53
2022-10-09T17:04:33.703Z,17.37
2022-10-09T17:07:07.358Z,17.28
2022-10-09T17:09:38.488Z,17.12
2022-10-09T17:12:10.258Z,16.98
2022-10-09T17:14:41.033Z,16.84
2022-10-09T17:17:13.515Z,16.42
2022-10-09T17:19:45.955Z,15.32
2022-10-09T17:22:22.127Z,14.10
2022-10-09T17:24:52.809Z,13.23
2022-10-09T17:27:23.328Z,12.42
2022-10-09T17:29:54.066Z,11.92
2022-10-09T17:32:25.392Z,11.56
2022-10-09T17:34:55.927Z,11.30
2022-10-09T17:37:28.973Z,11.24
2022-10-09T17:39:59.820Z,11.19
2022-10-09T17:42:31.016Z,11.15
2022-10-09T17:45:02.421Z,11.11
2022-10-09T17:47:35.129Z,11.09
2022-10-09T17:50:05.868Z,11.04
2022-10-09T17:52:38.981Z,11.00
2022-10-09T17:55:11.160Z,10.93
2022-10-09T17:57:41.599Z,10.82
2022-10-09T18:00:13.708Z,10.65
2022-10-09T18:02:44.241Z,10.46
2022-10-09T18:05:15.621Z,10.37
2022-10-09T18:07:49.399Z,10.34
2022-10-09T18:10:21.769Z,10.54
2022-10-09T18:12:52.920Z,10.71
2022-10-09T18:15:24.352Z,10.93
2022-10-09T18:17:55.761Z,11.17
2022-10-09T18:20:27.319Z,11.42
2022-10-09T18:23:00.565Z,11.68
2022-10-09T18:25:31.052Z,11.85
2022-10-09T18:28:01.551Z,12.09
2022-10-09T18:30:32.118Z,12.27
2022-10-09T18:33:02.801Z,12.43
2022-10-09T18:35:33.387Z,12.57
2022-10-09T18:38:06.605Z,12.66
2022-10-09T18:40:45.624Z,12.77
2022-10-09T18:43:16.478Z,12.86
2022-10-09T18:45:49.116Z,12.90
2022-10-09T18:48:20.557Z,12.98
2022-10-09T18:50:51.785Z,13.01
2022-10-09T18:53:25.152Z,13.02
2022-10-09T18:55:55.883Z,13.02
2022-10-09T18:58:27.211Z,13.05
2022-10-09T19:00:59.151Z,13.06
2022-10-09T19:03:29.732Z,13.04
2022-10-09T19:06:00.308Z,13.04
2022-10-09T19:08:33.494Z,13.01
2022-10-09T19:11:04.208Z,13.02
2022-10-09T19:13:35.022Z,13.00
2022-10-09T19:16:06.510Z,12.97
2022-10-09T19:18:37.656Z,12.97
2022-10-09T19:21:08.696Z,12.94
2022-10-09T19:23:41.847Z,12.92
2022-10-09T19:26:12.618Z,12.76
2022-10-09T19:28:44.177Z,12.81
2022-10-09T19:31:15.995Z,12.81
2022-10-09T19:33:46.799Z,12.77
2022-10-09T19:36:18.064Z,12.73
2022-10-09T19:38:51.206Z,12.68
2022-10-09T19:41:21.956Z,12.61
2022-10-09T19:43:52.476Z,12.59
2022-10-09T19:46:23.765Z,12.53
2022-10-09T19:48:54.601Z,12.51
2022-10-09T19:51:27.471Z,12.47
2022-10-09T19:54:00.599Z,12.45
2022-10-09T19:56:33.536Z,12.40
2022-10-09T19:59:05.880Z,12.39
2022-10-09T20:01:40.247Z,12.34
2022-10-09T20:04:13.543Z,12.27
2022-10-09T20:06:45.439Z,12.24
2022-10-09T20:09:21.146Z,12.15
2022-10-09T20:11:51.732Z,12.15
2022-10-09T20:14:22.277Z,12.11
2022-10-09T20:16:52.854Z,12.08
2022-10-09T20:19:25.172Z,12.05
2022-10-09T20:21:55.736Z,12.02
2022-10-09T20:24:28.892Z,11.97
2022-10-09T20:26:59.467Z,11.94
2022-10-09T20:29:30.046Z,11.90
2022-10-09T20:32:00.559Z,11.85
2022-10-09T20:34:31.353Z,11.83
2022-10-09T20:37:01.851Z,11.82
2022-10-09T20:39:35.001Z,11.80
2022-10-09T20:42:05.567Z,11.79
2022-10-09T20:44:36.219Z,11.78
2022-10-09T20:47:07.135Z,11.77
2022-10-09T20:49:37.722Z,11.77
2022-10-09T20:52:08.255Z,11.76
2022-10-09T20:54:41.333Z,11.76
2022-10-09T20:57:11.840Z,11.73
2022-10-09T20:59:42.351Z,11.73
2022-10-09T21:02:16.053Z,11.72
2022-10-09T21:04:46.704Z,11.70
2022-10-09T21:07:17.331Z,11.68
2022-10-09T21:09:50.527Z,11.64
2022-10-09T21:12:21.026Z,11.56
2022-10-09T21:14:51.636Z,11.61
2022-10-09T21:17:22.008Z,11.56
2022-10-09T21:19:52.846Z,11.58
2022-10-09T21:22:23.694Z,11.55
2022-10-09T21:24:56.858Z,11.52
2022-10-09T21:27:27.402Z,11.51
2022-10-09T21:29:57.916Z,11.44
2022-10-09T21:32:28.539Z,11.48
2022-10-09T21:34:59.047Z,11.44
2022-10-09T21:37:29.514Z,11.43
2022-10-09T21:40:02.560Z,11.29
2022-10-09T21:42:33.629Z,10.70
2022-10-09T21:45:04.165Z,9.93
2022-10-09T21:47:34.871Z,9.16
2022-10-09T21:50:05.238Z,8.56
2022-10-09T21:52:35.760Z,8.13
2022-10-09T21:55:09.767Z,7.86
2022-10-09T21:57:40.703Z,7.67
2022-10-09T22:00:13.351Z,7.60
2022-10-09T22:02:43.865Z,7.57
2022-10-09T22:05:14.684Z,7.60
2022-10-09T22:07:45.196Z,7.67
2022-10-09T22:10:18.366Z,7.72
2022-10-09T22:12:49.143Z,7.74
2022-10-09T22:15:20.148Z,7.74
2022-10-09T22:17:50.643Z,7.67
2022-10-09T22:20:21.301Z,7.59
2022-10-09T22:22:52.359Z,7.44
2022-10-09T22:25:25.754Z,7.33
2022-10-09T22:27:56.308Z,7.26
2022-10-09T22:30:26.866Z,7.33
2022-10-09T22:32:57.692Z,7.37
2022-10-09T22:35:28.860Z,7.42
2022-10-09T22:38:00.089Z,7.43
2022-10-09T22:40:33.246Z,7.45
2022-10-09T22:43:04.061Z,7.43
2022-10-09T22:45:34.537Z,7.45
2022-10-09T22:48:05.063Z,7.43
2022-10-09T22:50:35.541Z,7.44
2022-10-09T22:53:06.024Z,7.44
2022-10-09T22:55:43.372Z,7.44
2022-10-09T22:58:13.889Z,7.41
2022-10-09T23:00:44.362Z,7.44
2022-10-09T23:03:14.968Z,7.40
2022-10-09T23:05:45.448Z,7.38
2022-10-09T23:08:16.321Z,7.37
2022-10-09T23:10:49.398Z,7.34
2022-10-09T23:13:21.926Z,7.32
2022-10-09T23:15:52.421Z,7.31
2022-10-09T23:18:23.010Z,7.30
2022-10-09T23:20:53.473Z,7.27
2022-10-09T23:23:23.990Z,7.27
2022-10-09T23:25:57.037Z,7.26
2022-10-09T23:28:28.024Z,7.24
2022-10-09T23:31:04.235Z,7.22
2022-10-09T23:33:34.821Z,7.23
2022-10-09T23:36:06.055Z,7.23
2022-10-09T23:38:36.998Z,7.20
2022-10-09T23:41:13.982Z,7.15
2022-10-09T23:43:46.987Z,7.11
2022-10-09T23:46:19.849Z,7.09
2022-10-09T23:48:51.591Z,7.11
2022-10-09T23:51:23.524Z,7.09
2022-10-09T23:53:54.902Z,7.08
2022-10-09T23:56:30.053Z,7.04
2022-10-09T23:59:01.848Z,7.05
